Time;durP1;ratioP1;P1;durP2;ratioP2;P2;SDS_P1;SDS_P2;PMS_P1;PMS_P2;Temp;Humidity;BMP_temperature;BMP_pressure;BME280_temperature;BME280_humidity;BME280_pressure;Samples;Min_cycle;Max_cycle;Signal;HPM_P1;HPM_P2
2021/07/18 00:00:36;;;;;;;33.90;21.88;;;;;;;;;;5043407;28;20108;-80
2021/07/18 00:03:02;;;;;;;33.60;20.75;;;;;;;;;;5042484;28;20079;-80
2021/07/18 00:05:28;;;;;;;31.85;20.77;;;;;;;;;;5044432;28;20036;-81
2021/07/18 00:07:53;;;;;;;30.85;19.45;;;;;;;;;;5049602;28;20039;-80
2021/07/18 00:10:19;;;;;;;33.30;19.65;;;;;;;;;;5047037;28;20025;-81
2021/07/18 00:12:44;;;;;;;30.05;20.45;;;;;;;;;;5047059;28;20103;-81
2021/07/18 00:15:12;;;;;;;31.67;20.42;;;;;;;;;;5041274;28;20036;-81
2021/07/18 00:17:38;;;;;;;29.83;19.65;;;;;;;;;;5042089;28;20140;-81
2021/07/18 00:20:10;;;;;;;30.38;19.52;;;;;;;;;;5042140;28;20139;-81
2021/07/18 00:22:35;;;;;;;32.15;20.08;;;;;;;;;;5040574;28;20048;-80
2021/07/18 00:25:01;;;;;;;33.67;20.02;;;;;;;;;;5038275;28;20476;-81
2021/07/18 00:27:27;;;;;;;30.52;18.92;;;;;;;;;;5042142;28;20024;-81
2021/07/18 00:29:52;;;;;;;30.25;19.20;;;;;;;;;;5038917;28;20025;-80
2021/07/18 00:32:18;;;;;;;27.45;17.95;;;;;;;;;;5045086;28;20025;-80
2021/07/18 00:34:44;;;;;;;33.40;19.17;;;;;;;;;;5039752;28;20444;-80
2021/07/18 00:37:09;;;;;;;32.35;19.90;;;;;;;;;;5047635;28;20062;-80
2021/07/18 00:39:34;;;;;;;30.77;19.08;;;;;;;;;;5036570;28;20116;-80
2021/07/18 00:42:04;;;;;;;31.88;19.00;;;;;;;;;;5043722;28;20039;-80
2021/07/18 00:44:29;;;;;;;29.40;18.38;;;;;;;;;;5039036;28;20388;-80
2021/07/18 00:46:55;;;;;;;29.63;18.95;;;;;;;;;;5040623;28;20028;-80
2021/07/18 00:49:20;;;;;;;25.98;16.70;;;;;;;;;;5039624;28;20029;-81
2021/07/18 00:51:46;;;;;;;28.20;18.33;;;;;;;;;;5042850;28;20116;-80
2021/07/18 00:54:12;;;;;;;32.08;18.73;;;;;;;;;;5041093;28;20029;-80
2021/07/18 00:56:38;;;;;;;28.30;17.65;;;;;;;;;;5047727;28;20233;-80
2021/07/18 00:59:05;;;;;;;28.58;17.80;;;;;;;;;;5045840;28;20522;-80
2021/07/18 01:01:31;;;;;;;26.67;17.55;;;;;;;;;;5044474;28;20104;-80
2021/07/18 01:03:56;;;;;;;24.60;16.70;;;;;;;;;;5041014;28;20119;-80
2021/07/18 01:06:22;;;;;;;30.00;16.92;;;;;;;;;;5045973;28;20027;-81
2021/07/18 01:08:47;;;;;;;28.13;17.65;;;;;;;;;;5038362;28;20392;-80
2021/07/18 01:11:13;;;;;;;23.80;17.00;;;;;;;;;;5041033;28;20437;-80
2021/07/18 01:13:39;;;;;;;23.95;16.05;;;;;;;;;;5038419;28;20033;-80
2021/07/18 01:16:04;;;;;;;22.48;15.75;;;;;;;;;;5044790;28;20158;-80
2021/07/18 01:18:30;;;;;;;22.17;15.05;;;;;;;;;;5043479;28;20036;-80
2021/07/18 01:20:56;;;;;;;23.38;15.30;;;;;;;;;;5044061;28;20451;-80
2021/07/18 01:23:22;;;;;;;21.83;15.25;;;;;;;;;;5042519;28;20107;-81
2021/07/18 01:25:52;;;;;;;25.50;16.25;;;;;;;;;;5045277;28;20491;-81
2021/07/18 01:28:19;;;;;;;20.20;14.95;;;;;;;;;;5044149;28;20020;-81
2021/07/18 01:30:45;;;;;;;25.08;16.10;;;;;;;;;;5036577;28;20514;-80
2021/07/18 01:33:10;;;;;;;19.20;14.43;;;;;;;;;;5037577;28;20041;-80
2021/07/18 01:35:36;;;;;;;23.13;14.75;;;;;;;;;;5037004;28;20442;-80
2021/07/18 01:38:05;;;;;;;21.33;15.48;;;;;;;;;;5046721;28;20388;-80
2021/07/18 01:40:31;;;;;;;23.60;15.43;;;;;;;;;;5040519;28;20128;-80
2021/07/18 01:42:56;;;;;;;21.73;15.35;;;;;;;;;;5043528;28;20108;-80
2021/07/18 01:45:23;;;;;;;28.33;15.35;;;;;;;;;;5033937;28;20040;-80
2021/07/18 01:47:49;;;;;;;25.13;14.90;;;;;;;;;;5042733;28;20465;-79
2021/07/18 01:50:15;;;;;;;25.40;15.52;;;;;;;;;;5038617;28;20095;-79
2021/07/18 01:52:40;;;;;;;23.17;14.98;;;;;;;;;;5035340;28;20533;-79
2021/07/18 01:55:07;;;;;;;23.58;14.95;;;;;;;;;;5042418;28;20270;-79
2021/07/18 01:57:33;;;;;;;24.17;15.43;;;;;;;;;;5040274;28;20025;-79
2021/07/18 01:59:58;;;;;;;21.67;14.73;;;;;;;;;;5046154;28;20032;-79
2021/07/18 02:02:24;;;;;;;20.00;14.75;;;;;;;;;;5040866;28;20150;-79
2021/07/18 02:04:49;;;;;;;27.80;15.05;;;;;;;;;;5036610;28;20112;-79
2021/07/18 02:07:16;;;;;;;25.98;15.35;;;;;;;;;;5043291;28;20491;-79
2021/07/18 02:09:42;;;;;;;21.00;14.60;;;;;;;;;;5044680;28;20510;-79
2021/07/18 02:12:08;;;;;;;21.55;14.77;;;;;;;;;;5035763;28;20037;-79
2021/07/18 02:14:35;;;;;;;23.08;13.88;;;;;;;;;;5041219;28;20036;-79
2021/07/18 02:17:00;;;;;;;21.08;15.07;;;;;;;;;;5034281;28;20032;-79
2021/07/18 02:19:30;;;;;;;22.50;14.45;;;;;;;;;;5047382;28;20455;-79
2021/07/18 02:21:56;;;;;;;23.00;15.35;;;;;;;;;;5042774;28;20036;-79
2021/07/18 02:24:22;;;;;;;20.70;14.70;;;;;;;;;;5050182;28;20025;-79
2021/07/18 02:26:47;;;;;;;19.63;14.13;;;;;;;;;;5044037;28;20029;-79
2021/07/18 02:29:13;;;;;;;21.63;14.32;;;;;;;;;;5043333;28;20124;-79
2021/07/18 02:31:38;;;;;;;25.00;14.65;;;;;;;;;;5044029;28;20037;-79
2021/07/18 02:34:04;;;;;;;25.98;15.75;;;;;;;;;;5040775;28;20028;-79
2021/07/18 02:36:31;;;;;;;21.73;14.48;;;;;;;;;;5037994;28;20021;-78
2021/07/18 02:38:58;;;;;;;23.80;15.05;;;;;;;;;;5047992;28;20033;-79
2021/07/18 02:41:24;;;;;;;22.33;15.20;;;;;;;;;;5045269;28;20078;-81
2021/07/18 02:43:50;;;;;;;22.40;14.85;;;;;;;;;;5044788;28;20029;-78
2021/07/18 02:46:15;;;;;;;20.10;14.40;;;;;;;;;;5045995;28;20025;-79
2021/07/18 02:48:41;;;;;;;21.15;13.98;;;;;;;;;;5042303;28;20108;-79
2021/07/18 02:51:06;;;;;;;24.52;14.48;;;;;;;;;;5047105;28;20047;-79
2021/07/18 02:53:32;;;;;;;22.80;14.82;;;;;;;;;;5044562;28;20025;-79
2021/07/18 02:55:57;;;;;;;21.45;15.10;;;;;;;;;;5036753;28;20086;-79
2021/07/18 02:58:23;;;;;;;21.83;15.00;;;;;;;;;;5042822;28;20118;-79
2021/07/18 03:00:49;;;;;;;20.90;14.48;;;;;;;;;;5047207;28;20108;-79
2021/07/18 03:03:14;;;;;;;21.60;15.05;;;;;;;;;;5039243;28;20025;-79
2021/07/18 03:05:40;;;;;;;23.40;14.45;;;;;;;;;;5038127;28;20560;-78
2021/07/18 03:08:06;;;;;;;27.13;14.07;;;;;;;;;;5043794;28;20025;-79
2021/07/18 03:10:32;;;;;;;22.48;13.90;;;;;;;;;;5049720;28;20092;-79
2021/07/18 03:12:57;;;;;;;20.42;14.38;;;;;;;;;;5042515;28;20176;-79
2021/07/18 03:15:22;;;;;;;29.17;14.60;;;;;;;;;;5043630;28;20029;-79
2021/07/18 03:17:48;;;;;;;20.15;14.10;;;;;;;;;;5046042;28;20484;-79
2021/07/18 03:20:16;;;;;;;25.52;15.45;;;;;;;;;;5044206;28;20385;-79
2021/07/18 03:22:42;;;;;;;24.95;14.13;;;;;;;;;;5044576;28;20116;-79
2021/07/18 03:25:09;;;;;;;25.17;15.77;;;;;;;;;;5039113;28;20488;-79
2021/07/18 03:27:35;;;;;;;21.65;14.55;;;;;;;;;;5036481;28;20029;-79
2021/07/18 03:30:02;;;;;;;24.90;15.38;;;;;;;;;;5047411;28;20037;-79
2021/07/18 03:32:27;;;;;;;24.00;13.82;;;;;;;;;;5037069;28;20021;-79
2021/07/18 03:34:54;;;;;;;21.35;13.52;;;;;;;;;;5054101;28;20044;-79
2021/07/18 03:37:19;;;;;;;21.30;13.68;;;;;;;;;;5047610;28;20378;-79
2021/07/18 03:39:45;;;;;;;22.70;14.45;;;;;;;;;;5041165;28;20036;-79
2021/07/18 03:42:10;;;;;;;22.90;15.27;;;;;;;;;;5041277;28;20394;-79
2021/07/18 03:44:40;;;;;;;22.52;13.82;;;;;;;;;;5042314;28;20029;-79
2021/07/18 03:47:06;;;;;;;24.13;14.02;;;;;;;;;;5045752;28;20025;-79
2021/07/18 03:49:32;;;;;;;23.40;14.25;;;;;;;;;;5044350;28;20031;-79
2021/07/18 03:51:58;;;;;;;22.30;14.63;;;;;;;;;;5042621;28;20021;-79
2021/07/18 03:54:23;;;;;;;25.55;16.10;;;;;;;;;;5044858;28;20494;-79
2021/07/18 03:56:49;;;;;;;20.10;13.90;;;;;;;;;;5043194;28;20025;-79
2021/07/18 03:59:14;;;;;;;22.50;14.20;;;;;;;;;;5034739;28;20025;-79
2021/07/18 04:01:40;;;;;;;23.30;14.02;;;;;;;;;;5041530;28;20454;-79
2021/07/18 04:04:05;;;;;;;23.70;14.10;;;;;;;;;;5048042;28;20025;-79
2021/07/18 04:06:31;;;;;;;21.20;13.68;;;;;;;;;;5037480;28;20389;-79
2021/07/18 04:08:56;;;;;;;23.23;13.88;;;;;;;;;;5037871;28;20032;-79
2021/07/18 04:11:21;;;;;;;20.65;13.93;;;;;;;;;;5039335;28;20034;-79
2021/07/18 04:13:47;;;;;;;20.77;13.98;;;;;;;;;;5046030;28;20029;-79
2021/07/18 04:16:12;;;;;;;29.42;14.07;;;;;;;;;;5045324;28;20263;-79
2021/07/18 04:18:38;;;;;;;23.88;13.77;;;;;;;;;;5037050;28;20159;-79
2021/07/18 04:21:03;;;;;;;22.92;13.48;;;;;;;;;;5036712;28;20029;-79
2021/07/18 04:23:29;;;;;;;20.73;13.65;;;;;;;;;;5044620;28;20020;-79
2021/07/18 04:25:55;;;;;;;22.67;13.25;;;;;;;;;;5045792;28;20539;-79
2021/07/18 04:28:20;;;;;;;19.73;13.27;;;;;;;;;;5048708;28;20033;-79
2021/07/18 04:30:45;;;;;;;22.90;12.98;;;;;;;;;;5044493;28;20032;-79
2021/07/18 04:33:11;;;;;;;19.70;12.70;;;;;;;;;;5045395;28;20073;-79
2021/07/18 04:35:37;;;;;;;20.20;12.95;;;;;;;;;;5041258;28;20062;-79
2021/07/18 04:38:03;;;;;;;23.13;13.68;;;;;;;;;;5039121;28;20403;-78
2021/07/18 04:40:30;;;;;;;19.23;12.80;;;;;;;;;;5046739;28;20501;-79
2021/07/18 04:42:55;;;;;;;19.67;12.10;;;;;;;;;;5041020;28;20027;-78
2021/07/18 04:45:21;;;;;;;18.40;12.63;;;;;;;;;;5040820;28;20032;-78
2021/07/18 04:47:50;;;;;;;18.88;12.45;;;;;;;;;;5041115;28;20039;-78
2021/07/18 04:50:16;;;;;;;;;;;;;;;;;;5039847;28;20027;-79
2021/07/18 04:52:42;;;;;;;19.35;12.10;;;;;;;;;;5046888;28;20172;-79
2021/07/18 04:55:09;;;;;;;16.80;11.95;;;;;;;;;;5037199;28;20029;-78
2021/07/18 04:57:34;;;;;;;19.60;12.57;;;;;;;;;;5042683;28;20116;-79
2021/07/18 05:00:01;;;;;;;18.80;11.65;;;;;;;;;;5043341;28;20108;-79
2021/07/18 05:02:26;;;;;;;21.15;12.00;;;;;;;;;;5045809;28;20522;-79
2021/07/18 05:04:55;;;;;;;18.88;13.00;;;;;;;;;;5044952;28;20120;-79
2021/07/18 05:07:20;;;;;;;17.70;12.48;;;;;;;;;;5037359;28;20480;-79
2021/07/18 05:09:46;;;;;;;20.77;12.50;;;;;;;;;;5038541;28;20036;-80
2021/07/18 05:12:11;;;;;;;20.27;12.82;;;;;;;;;;5056974;28;20484;-80
2021/07/18 05:14:37;;;;;;;17.77;11.93;;;;;;;;;;5034170;28;20076;-80
2021/07/18 05:17:02;;;;;;;16.60;11.85;;;;;;;;;;5039408;28;20029;-80
2021/07/18 05:19:28;;;;;;;18.15;12.65;;;;;;;;;;5034470;28;20025;-80
2021/07/18 05:21:57;;;;;;;18.80;12.75;;;;;;;;;;5041929;28;20436;-80
2021/07/18 05:24:22;;;;;;;;;;;;;;;;;;5043392;28;20017;-80
2021/07/18 05:26:48;;;;;;;17.65;12.10;;;;;;;;;;5045656;28;19913;-80
2021/07/18 05:29:13;;;;;;;16.10;11.15;;;;;;;;;;5039727;28;20021;-80
2021/07/18 05:31:39;;;;;;;17.58;11.73;;;;;;;;;;5043767;28;20036;-80
2021/07/18 05:34:04;;;;;;;18.20;11.07;;;;;;;;;;5040416;28;20090;-80
2021/07/18 05:36:30;;;;;;;16.92;11.15;;;;;;;;;;5041544;28;20160;-80
2021/07/18 05:38:55;;;;;;;16.45;11.23;;;;;;;;;;5045226;28;20130;-80
2021/07/18 05:41:20;;;;;;;19.58;12.75;;;;;;;;;;5040795;28;20029;-80
2021/07/18 05:43:46;;;;;;;21.17;12.38;;;;;;;;;;5037635;28;20542;-79
2021/07/18 05:46:11;;;;;;;29.13;15.13;;;;;;;;;;5040630;28;20029;-79
2021/07/18 05:48:38;;;;;;;28.30;14.90;;;;;;;;;;5045014;28;20067;-79
2021/07/18 05:51:03;;;;;;;29.10;14.00;;;;;;;;;;5041467;28;20338;-79
2021/07/18 05:53:28;;;;;;;26.25;12.43;;;;;;;;;;5045035;28;20098;-79
2021/07/18 05:55:54;;;;;;;17.55;11.07;;;;;;;;;;5046240;28;20105;-79
2021/07/18 05:58:19;;;;;;;18.60;11.23;;;;;;;;;;5050520;28;20025;-79
2021/07/18 06:00:45;;;;;;;16.48;10.27;;;;;;;;;;5046688;28;20064;-79
2021/07/18 06:03:11;;;;;;;17.50;9.27;;;;;;;;;;5042383;28;20029;-79
2021/07/18 06:05:37;;;;;;;21.65;10.20;;;;;;;;;;5047901;28;20021;-78
2021/07/18 06:08:04;;;;;;;17.25;9.80;;;;;;;;;;5042350;28;20025;-79
2021/07/18 06:10:29;;;;;;;15.25;9.05;;;;;;;;;;5046202;28;20039;-78
2021/07/18 06:12:55;;;;;;;16.80;8.20;;;;;;;;;;5048742;28;20028;-79
2021/07/18 06:15:20;;;;;;;14.40;8.88;;;;;;;;;;5048657;28;20480;-78
2021/07/18 06:17:46;;;;;;;14.10;9.23;;;;;;;;;;5041869;28;20041;-78
2021/07/18 06:20:13;;;;;;;14.55;8.80;;;;;;;;;;5044157;28;20025;-78
2021/07/18 06:22:40;;;;;;;12.68;8.45;;;;;;;;;;5041199;28;20072;-78
2021/07/18 06:25:06;;;;;;;16.77;8.65;;;;;;;;;;5047302;28;20025;-79
2021/07/18 06:27:32;;;;;;;16.42;8.77;;;;;;;;;;5046184;28;20492;-78
2021/07/18 06:29:58;;;;;;;13.90;9.00;;;;;;;;;;5049813;28;20515;-78
2021/07/18 06:32:25;;;;;;;14.70;8.75;;;;;;;;;;5049586;28;20041;-78
2021/07/18 06:34:51;;;;;;;14.40;8.60;;;;;;;;;;5049252;28;20595;-79
2021/07/18 06:37:16;;;;;;;16.00;8.80;;;;;;;;;;5042234;28;20120;-78
2021/07/18 06:39:42;;;;;;;13.07;9.32;;;;;;;;;;5046406;28;20035;-78
2021/07/18 06:42:07;;;;;;;14.30;8.48;;;;;;;;;;5049141;28;20052;-78
2021/07/18 06:44:33;;;;;;;15.63;8.60;;;;;;;;;;5041744;28;20068;-79
2021/07/18 06:46:58;;;;;;;12.50;8.35;;;;;;;;;;5043991;28;20098;-78
2021/07/18 06:49:23;;;;;;;14.48;8.90;;;;;;;;;;5046912;28;20087;-78
2021/07/18 06:51:49;;;;;;;20.48;10.18;;;;;;;;;;5049270;28;20528;-78
2021/07/18 06:54:14;;;;;;;18.08;8.45;;;;;;;;;;5043119;28;20029;-79
2021/07/18 06:56:40;;;;;;;14.90;8.68;;;;;;;;;;5046635;28;20028;-79
2021/07/18 06:59:06;;;;;;;11.73;7.60;;;;;;;;;;5042508;28;20018;-79
2021/07/18 07:01:31;;;;;;;14.95;8.70;;;;;;;;;;5048055;28;20032;-78
2021/07/18 07:03:57;;;;;;;14.70;8.70;;;;;;;;;;5044212;28;20060;-79
2021/07/18 07:06:23;;;;;;;11.35;7.85;;;;;;;;;;5038897;28;20368;-80
2021/07/18 07:08:49;;;;;;;13.18;7.82;;;;;;;;;;5042030;28;20560;-78
2021/07/18 07:11:16;;;;;;;11.18;7.82;;;;;;;;;;5046703;28;20143;-78
2021/07/18 07:13:41;;;;;;;13.82;8.30;;;;;;;;;;5038440;28;20025;-78
2021/07/18 07:16:07;;;;;;;16.95;8.48;;;;;;;;;;5036228;28;20040;-78
2021/07/18 07:18:33;;;;;;;13.20;7.35;;;;;;;;;;5041906;28;20272;-79
2021/07/18 07:20:58;;;;;;;12.48;7.65;;;;;;;;;;5037848;28;20185;-79
2021/07/18 07:23:23;;;;;;;13.23;7.82;;;;;;;;;;5038498;28;20111;-79
2021/07/18 07:25:49;;;;;;;12.43;8.45;;;;;;;;;;5045813;28;20111;-80
2021/07/18 07:28:14;;;;;;;12.27;7.85;;;;;;;;;;5044975;28;20028;-79
2021/07/18 07:30:40;;;;;;;12.00;7.40;;;;;;;;;;5034634;28;20033;-80
2021/07/18 07:33:05;;;;;;;12.27;7.60;;;;;;;;;;5045720;28;20438;-79
2021/07/18 07:35:31;;;;;;;14.45;7.28;;;;;;;;;;5039762;28;20044;-78
2021/07/18 07:37:56;;;;;;;12.85;6.97;;;;;;;;;;5043646;28;20493;-79
2021/07/18 07:40:22;;;;;;;10.50;6.22;;;;;;;;;;5038681;28;20491;-79
2021/07/18 07:42:48;;;;;;;9.05;5.97;;;;;;;;;;5045213;28;20365;-79
2021/07/18 07:45:14;;;;;;;9.55;6.30;;;;;;;;;;5043893;28;20052;-79
2021/07/18 07:47:40;;;;;;;10.90;6.15;;;;;;;;;;5035815;28;20319;-79
2021/07/18 07:50:08;;;;;;;9.65;6.30;;;;;;;;;;5042043;28;20508;-79
2021/07/18 07:52:33;;;;;;;11.57;6.38;;;;;;;;;;5044634;28;20508;-79
2021/07/18 07:55:00;;;;;;;11.98;7.22;;;;;;;;;;5041744;28;20041;-78
2021/07/18 07:57:25;;;;;;;12.60;6.97;;;;;;;;;;5037308;28;20108;-79
2021/07/18 07:59:51;;;;;;;12.50;6.40;;;;;;;;;;5034400;28;20104;-79
2021/07/18 08:02:16;;;;;;;12.35;6.03;;;;;;;;;;5040118;28;20451;-79
2021/07/18 08:04:42;;;;;;;10.52;6.25;;;;;;;;;;5039968;28;20036;-79
2021/07/18 08:07:07;;;;;;;10.10;5.60;;;;;;;;;;5045980;28;20472;-80
2021/07/18 08:09:32;;;;;;;8.73;5.50;;;;;;;;;;5046717;28;20120;-79
2021/07/18 08:11:58;;;;;;;10.32;6.03;;;;;;;;;;5043107;28;20036;-80
2021/07/18 08:14:23;;;;;;;8.98;5.53;;;;;;;;;;5044897;28;20025;-79
2021/07/18 08:16:49;;;;;;;11.25;5.47;;;;;;;;;;5040175;28;20059;-79
2021/07/18 08:19:14;;;;;;;12.43;5.57;;;;;;;;;;5042858;28;20021;-79
2021/07/18 08:21:40;;;;;;;10.65;5.82;;;;;;;;;;5031994;28;20112;-80
2021/07/18 08:24:05;;;;;;;15.77;5.95;;;;;;;;;;5041039;28;20095;-80
2021/07/18 08:26:31;;;;;;;11.43;6.00;;;;;;;;;;5041753;28;20381;-80
2021/07/18 08:28:57;;;;;;;8.05;5.00;;;;;;;;;;5043724;28;20033;-79
2021/07/18 08:31:22;;;;;;;7.45;4.80;;;;;;;;;;5046100;28;20060;-80
2021/07/18 08:33:48;;;;;;;6.82;4.40;;;;;;;;;;5044465;28;20032;-80
2021/07/18 08:36:13;;;;;;;9.52;5.32;;;;;;;;;;5043204;28;20566;-80
2021/07/18 08:38:38;;;;;;;7.38;4.85;;;;;;;;;;5048010;28;20119;-80
2021/07/18 08:41:04;;;;;;;9.88;5.15;;;;;;;;;;5034270;28;20504;-79
2021/07/18 08:43:32;;;;;;;13.95;5.30;;;;;;;;;;5038559;28;20477;-79
2021/07/18 08:45:57;;;;;;;8.55;4.50;;;;;;;;;;5038042;28;20575;-78
2021/07/18 08:48:23;;;;;;;7.55;4.65;;;;;;;;;;5046173;28;20111;-79
2021/07/18 08:50:49;;;;;;;11.35;4.88;;;;;;;;;;5033856;28;20037;-79
2021/07/18 08:53:15;;;;;;;8.98;4.90;;;;;;;;;;5046140;28;20464;-79
2021/07/18 08:55:40;;;;;;;9.13;4.93;;;;;;;;;;5032987;28;20439;-80
2021/07/18 08:58:06;;;;;;;7.15;4.65;;;;;;;;;;5033955;28;20095;-79
2021/07/18 09:00:32;;;;;;;7.68;5.20;;;;;;;;;;5044101;28;20025;-80
2021/07/18 09:02:57;;;;;;;9.02;4.97;;;;;;;;;;5042445;28;20056;-80
2021/07/18 09:05:23;;;;;;;6.18;4.43;;;;;;;;;;5042416;28;20064;-80
2021/07/18 09:07:56;;;;;;;7.03;4.25;;;;;;;;;;5035753;28;20041;-79
2021/07/18 09:10:24;;;;;;;9.80;5.18;;;;;;;;;;5041082;28;20117;-80
2021/07/18 09:13:07;;;;;;;7.05;4.53;;;;;;;;;;5042082;28;20040;-80
2021/07/18 09:15:48;;;;;;;9.43;4.82;;;;;;;;;;5038052;28;20029;-80
2021/07/18 09:18:33;;;;;;;9.50;4.70;;;;;;;;;;5040126;28;20405;-80
2021/07/18 09:20:58;;;;;;;6.47;4.38;;;;;;;;;;5045009;28;20195;-81
2021/07/18 09:23:28;;;;;;;7.88;4.63;;;;;;;;;;5040325;28;20032;-79
2021/07/18 09:26:20;;;;;;;10.05;4.30;;;;;;;;;;5039268;28;20029;-79
2021/07/18 09:28:46;;;;;;;9.60;4.20;;;;;;;;;;5044724;28;20029;-80
2021/07/18 09:31:33;;;;;;;9.18;4.68;;;;;;;;;;5048302;28;20059;-80
2021/07/18 09:34:12;;;;;;;5.80;3.92;;;;;;;;;;5041425;28;20456;-81
2021/07/18 09:36:38;;;;;;;6.57;4.18;;;;;;;;;;5044585;28;20028;-79
2021/07/18 09:39:11;;;;;;;6.55;3.90;;;;;;;;;;5038851;28;20119;-79
2021/07/18 09:41:42;;;;;;;9.10;4.07;;;;;;;;;;5043848;28;20056;-81
2021/07/18 09:44:07;;;;;;;7.40;3.80;;;;;;;;;;5042439;28;20048;-80
2021/07/18 09:46:34;;;;;;;7.43;4.15;;;;;;;;;;5044260;28;20453;-81
2021/07/18 09:49:03;;;;;;;7.57;4.32;;;;;;;;;;5050091;28;20507;-81
2021/07/18 09:51:29;;;;;;;7.57;4.05;;;;;;;;;;5046502;28;20024;-80
2021/07/18 09:54:12;;;;;;;5.20;4.00;;;;;;;;;;5044798;28;20371;-81
2021/07/18 09:56:38;;;;;;;6.25;4.00;;;;;;;;;;5047758;28;20403;-81
2021/07/18 09:59:05;;;;;;;8.98;3.90;;;;;;;;;;5043149;28;20025;-81
2021/07/18 10:01:34;;;;;;;6.95;3.50;;;;;;;;;;5063404;28;20028;-81
2021/07/18 10:04:01;;;;;;;9.05;3.85;;;;;;;;;;5050517;28;20456;-81
2021/07/18 10:06:28;;;;;;;6.15;3.22;;;;;;;;;;5042709;28;20029;-80
2021/07/18 10:08:56;;;;;;;8.07;3.83;;;;;;;;;;5039991;28;20029;-81
2021/07/18 10:11:24;;;;;;;7.75;3.80;;;;;;;;;;5037783;28;20025;-80
2021/07/18 10:13:51;;;;;;;8.63;4.13;;;;;;;;;;5039421;28;20033;-81
2021/07/18 10:16:19;;;;;;;11.88;3.67;;;;;;;;;;5040653;28;20026;-81
2021/07/18 10:18:48;;;;;;;4.25;3.22;;;;;;;;;;5045563;28;20040;-81
2021/07/18 10:21:19;;;;;;;6.10;3.30;;;;;;;;;;5037307;28;20028;-81
2021/07/18 10:23:48;;;;;;;9.10;3.30;;;;;;;;;;5040348;28;20026;-81
2021/07/18 10:26:19;;;;;;;6.82;3.30;;;;;;;;;;5036159;28;20404;-81
2021/07/18 10:28:46;;;;;;;7.65;4.18;;;;;;;;;;5047272;28;20040;-81
2021/07/18 10:31:12;;;;;;;8.45;3.60;;;;;;;;;;5046063;28;20021;-81
2021/07/18 10:33:41;;;;;;;5.57;3.78;;;;;;;;;;5049606;28;20552;-81
2021/07/18 10:36:07;;;;;;;6.00;3.67;;;;;;;;;;5043040;28;20542;-80
2021/07/18 10:38:36;;;;;;;5.28;3.30;;;;;;;;;;5039864;28;20037;-81
2021/07/18 10:41:02;;;;;;;7.13;3.25;;;;;;;;;;5039850;28;20553;-80
2021/07/18 10:43:47;;;;;;;8.05;3.20;;;;;;;;;;5035001;28;20104;-81
2021/07/18 10:46:15;;;;;;;4.30;3.10;;;;;;;;;;5045171;28;20033;-80
2021/07/18 10:48:41;;;;;;;9.23;3.72;;;;;;;;;;5044260;28;20068;-81
2021/07/18 10:51:06;;;;;;;8.07;3.50;;;;;;;;;;5042263;28;20052;-80
2021/07/18 10:53:35;;;;;;;7.95;3.65;;;;;;;;;;5043455;28;20550;-81
2021/07/18 10:56:01;;;;;;;7.97;3.20;;;;;;;;;;5040031;28;20025;-82
2021/07/18 10:58:39;;;;;;;5.45;3.47;;;;;;;;;;5039502;28;20029;-81
2021/07/18 11:01:10;;;;;;;8.43;3.50;;;;;;;;;;5041030;28;20033;-81
2021/07/18 11:03:38;;;;;;;8.68;3.53;;;;;;;;;;5044515;28;20065;-81
2021/07/18 11:06:28;;;;;;;10.75;3.60;;;;;;;;;;5046405;28;20119;-81
2021/07/18 11:09:06;;;;;;;7.55;3.58;;;;;;;;;;5042450;28;20044;-81
2021/07/18 11:11:46;;;;;;;5.40;3.20;;;;;;;;;;5064947;28;20689;-81
2021/07/18 11:14:36;;;;;;;8.63;3.50;;;;;;;;;;5044934;28;20473;-81
2021/07/18 11:17:10;;;;;;;6.22;3.22;;;;;;;;;;5047405;28;20150;-81
2021/07/18 11:19:38;;;;;;;6.50;3.03;;;;;;;;;;5039466;28;20684;-81
2021/07/18 11:22:04;;;;;;;8.20;3.10;;;;;;;;;;5041803;28;20048;-81
2021/07/18 11:24:48;;;;;;;3.65;2.83;;;;;;;;;;5038614;28;20033;-81
2021/07/18 11:27:33;;;;;;;3.80;2.95;;;;;;;;;;5040991;28;20171;-81
2021/07/18 11:30:02;;;;;;;6.57;3.22;;;;;;;;;;5038332;28;20417;-81
2021/07/18 11:32:30;;;;;;;3.90;2.80;;;;;;;;;;5042755;28;20503;-81
2021/07/18 11:34:57;;;;;;;6.45;3.78;;;;;;;;;;5036246;28;20107;-81
2021/07/18 11:37:28;;;;;;;6.40;2.85;;;;;;;;;;5040051;28;20043;-81
2021/07/18 11:40:09;;;;;;;6.32;2.70;;;;;;;;;;5044126;28;20598;-81
2021/07/18 11:42:34;;;;;;;5.68;3.05;;;;;;;;;;5047016;28;20028;-81
2021/07/18 11:45:00;;;;;;;5.63;2.72;;;;;;;;;;5034643;28;20714;-81
2021/07/18 11:47:27;;;;;;;5.20;3.55;;;;;;;;;;5039845;28;20021;-81
2021/07/18 11:49:53;;;;;;;8.38;3.28;;;;;;;;;;5046567;28;20110;-81
2021/07/18 11:52:19;;;;;;;6.40;3.05;;;;;;;;;;5038840;28;20060;-81
2021/07/18 11:54:45;;;;;;;6.85;3.10;;;;;;;;;;5038556;28;20193;-81
2021/07/18 11:57:14;;;;;;;6.20;2.95;;;;;;;;;;5038278;28;20035;-81
2021/07/18 11:59:41;;;;;;;6.00;3.13;;;;;;;;;;5045071;28;20021;-80
2021/07/18 12:02:07;;;;;;;4.80;2.78;;;;;;;;;;5037791;28;20456;-80
2021/07/18 12:04:34;;;;;;;6.43;2.70;;;;;;;;;;5043372;28;20484;-80
2021/07/18 12:07:04;;;;;;;4.90;2.85;;;;;;;;;;5038601;28;20025;-81
2021/07/18 12:09:39;;;;;;;6.25;2.70;;;;;;;;;;5042426;28;20029;-80
2021/07/18 12:12:07;;;;;;;4.47;2.65;;;;;;;;;;5047527;28;20021;-80
2021/07/18 12:14:34;;;;;;;5.68;2.80;;;;;;;;;;5041631;28;20551;-81
2021/07/18 12:17:01;;;;;;;8.82;3.35;;;;;;;;;;5036797;28;20041;-80
2021/07/18 12:19:28;;;;;;;3.90;2.60;;;;;;;;;;5044784;28;20056;-82
2021/07/18 12:21:55;;;;;;;6.13;2.85;;;;;;;;;;5043060;28;20124;-81
2021/07/18 12:24:26;;;;;;;5.43;3.17;;;;;;;;;;5045736;28;20020;-80
2021/07/18 12:26:57;;;;;;;5.50;3.33;;;;;;;;;;5046030;28;20146;-80
2021/07/18 12:29:24;;;;;;;41.22;25.27;;;;;;;;;;5041753;28;20451;-80
2021/07/18 12:31:50;;;;;;;21.42;11.40;;;;;;;;;;5046682;28;20035;-81
2021/07/18 12:34:18;;;;;;;10.45;7.22;;;;;;;;;;5044229;28;20025;-81
2021/07/18 12:37:02;;;;;;;8.23;3.92;;;;;;;;;;5037891;28;20125;-81
2021/07/18 12:39:48;;;;;;;6.40;2.60;;;;;;;;;;5044311;28;20078;-81
2021/07/18 12:42:20;;;;;;;4.18;2.40;;;;;;;;;;5041419;28;20047;-81
2021/07/18 12:44:50;;;;;;;4.85;2.88;;;;;;;;;;5040482;28;20480;-80
2021/07/18 12:47:26;;;;;;;7.00;2.50;;;;;;;;;;5038360;28;20112;-81
2021/07/18 12:50:10;;;;;;;4.93;3.25;;;;;;;;;;5044850;28;20029;-81
2021/07/18 12:53:15;;;;;;;8.25;2.75;;;;;;;;;;5038423;28;20498;-81
2021/07/18 12:55:53;;;;;;;5.47;2.95;;;;;;;;;;5039603;28;20033;-81
2021/07/18 12:58:21;;;;;;;;;;;;;;;;;;5042581;28;20024;-81
2021/07/18 13:01:05;;;;;;;3.55;2.53;;;;;;;;;;5040685;28;19916;-82
2021/07/18 13:03:33;;;;;;;4.97;2.58;;;;;;;;;;5043467;28;20532;-81
2021/07/18 13:06:06;;;;;;;7.78;4.85;;;;;;;;;;5034471;28;20036;-81
2021/07/18 13:08:34;;;;;;;4.55;2.90;;;;;;;;;;5041811;28;20021;-81
2021/07/18 13:11:00;;;;;;;4.53;2.50;;;;;;;;;;5048251;28;20021;-81
2021/07/18 13:13:34;;;;;;;5.15;3.00;;;;;;;;;;5042159;28;20123;-81
2021/07/18 13:16:01;;;;;;;5.25;2.55;;;;;;;;;;5044241;28;20270;-81
2021/07/18 13:18:37;;;;;;;4.78;2.90;;;;;;;;;;5036482;28;20464;-81
2021/07/18 13:21:15;;;;;;;7.63;3.15;;;;;;;;;;5037099;28;20022;-81
2021/07/18 13:23:43;;;;;;;5.60;3.05;;;;;;;;;;5039560;28;20029;-81
2021/07/18 13:26:09;;;;;;;6.93;3.72;;;;;;;;;;5039138;28;20036;-81
2021/07/18 13:28:34;;;;;;;7.43;3.38;;;;;;;;;;5044845;28;20108;-82
2021/07/18 13:31:00;;;;;;;5.57;3.40;;;;;;;;;;5045122;28;20435;-81
2021/07/18 13:33:32;;;;;;;6.15;2.75;;;;;;;;;;5039489;28;20115;-81
2021/07/18 13:36:05;;;;;;;5.47;3.72;;;;;;;;;;5047107;28;20131;-81
2021/07/18 13:38:32;;;;;;;4.50;2.88;;;;;;;;;;5049129;28;20499;-81
2021/07/18 13:41:12;;;;;;;5.85;3.05;;;;;;;;;;5035399;28;20033;-81
2021/07/18 13:43:38;;;;;;;3.35;2.63;;;;;;;;;;5036613;28;20385;-81
2021/07/18 13:46:03;;;;;;;3.80;3.15;;;;;;;;;;5034331;28;20071;-81
2021/07/18 13:48:33;;;;;;;5.13;2.90;;;;;;;;;;5041709;28;20021;-82
2021/07/18 13:51:00;;;;;;;4.97;3.15;;;;;;;;;;5044586;28;20036;-82
2021/07/18 13:53:27;;;;;;;5.95;3.47;;;;;;;;;;5031498;28;20078;-82
2021/07/18 13:55:53;;;;;;;5.53;3.60;;;;;;;;;;5037936;28;20043;-82
2021/07/18 13:58:18;;;;;;;6.78;3.45;;;;;;;;;;5040348;28;20512;-82
2021/07/18 14:00:44;;;;;;;4.68;3.47;;;;;;;;;;5040402;28;20032;-83
2021/07/18 14:03:10;;;;;;;5.70;4.20;;;;;;;;;;5036190;28;20204;-82
2021/07/18 14:05:37;;;;;;;7.25;4.57;;;;;;;;;;5041544;28;20104;-82
2021/07/18 14:08:04;;;;;;;7.68;5.00;;;;;;;;;;5039806;28;20029;-82
2021/07/18 14:10:29;;;;;;;9.05;5.00;;;;;;;;;;5045049;28;20028;-82
2021/07/18 14:13:01;;;;;;;8.02;4.75;;;;;;;;;;5039812;28;20425;-83
2021/07/18 14:15:26;;;;;;;7.10;5.40;;;;;;;;;;5045069;28;20031;-83
2021/07/18 14:17:52;;;;;;;14.45;5.93;;;;;;;;;;5050659;28;20123;-82
2021/07/18 14:20:24;;;;;;;9.32;6.15;;;;;;;;;;5049405;28;20107;-83
2021/07/18 14:22:51;;;;;;;7.53;5.90;;;;;;;;;;5045561;28;20035;-82
2021/07/18 14:25:18;;;;;;;11.77;6.15;;;;;;;;;;5046373;28;20028;-82
2021/07/18 14:27:44;;;;;;;8.98;5.85;;;;;;;;;;5049168;28;20031;-82
2021/07/18 14:30:16;;;;;;;12.15;6.57;;;;;;;;;;5042830;28;20095;-82
2021/07/18 14:32:43;;;;;;;9.45;7.07;;;;;;;;;;5042303;28;20033;-82